createdAt,value
2023-03-05T00:02:19.012Z,99217.54
2023-03-05T00:07:44.122Z,99222.14
2023-03-05T00:13:08.923Z,99218.49
2023-03-05T00:18:33.134Z,99218.42
2023-03-05T00:23:58.327Z,99208.23
2023-03-05T00:29:22.213Z,99206.63
2023-03-05T00:34:46.425Z,99201.63
2023-03-05T00:40:13.018Z,99200.59
2023-03-05T00:45:37.532Z,99191.68
2023-03-05T00:51:01.610Z,99184.22
2023-03-05T00:56:25.415Z,99177.48
2023-03-05T01:01:50.235Z,99165.79
2023-03-05T01:07:14.195Z,99157.33
2023-03-05T01:12:38.793Z,99159.17
2023-03-05T01:18:03.390Z,99154.67
2023-03-05T01:23:27.223Z,99145.75
2023-03-05T01:28:51.433Z,99147.77
2023-03-05T01:34:15.540Z,99144.08
2023-03-05T01:39:39.166Z,99134.51
2023-03-05T01:45:17.663Z,99124.73
2023-03-05T01:50:42.301Z,99110.25
2023-03-05T01:56:07.558Z,99110.41
2023-03-05T02:01:41.237Z,99105.45
2023-03-05T02:07:05.941Z,99106.46
2023-03-05T02:12:30.064Z,99104.94
2023-03-05T02:17:54.615Z,99102.39
2023-03-05T02:23:21.242Z,99091.77
2023-03-05T02:28:57.421Z,99087.82
2023-03-05T02:34:22.444Z,99079.45
2023-03-05T02:39:46.943Z,99070.30
2023-03-05T02:45:12.524Z,99055.98
2023-03-05T02:50:37.591Z,99046.59
2023-03-05T02:56:02.227Z,99036.85
2023-03-05T03:01:30.024Z,99029.70
2023-03-05T03:06:54.821Z,99026.99
2023-03-05T03:12:19.122Z,99023.74
2023-03-05T03:17:43.514Z,99020.41
2023-03-05T03:23:08.876Z,99017.73
2023-03-05T03:28:33.391Z,99009.33
2023-03-05T03:33:57.931Z,98999.02
2023-03-05T03:39:22.638Z,98998.48
2023-03-05T03:44:47.050Z,98994.52
2023-03-05T03:50:11.740Z,98988.69
2023-03-05T03:55:36.514Z,98984.05
2023-03-05T04:01:01.103Z,98976.71
2023-03-05T04:06:25.336Z,98966.92
2023-03-05T04:11:49.640Z,98962.47
2023-03-05T04:17:14.833Z,98958.32
2023-03-05T04:22:38.947Z,98958.11
2023-03-05T04:28:03.345Z,98953.58
2023-03-05T04:33:27.640Z,98948.21
2023-03-05T04:38:51.868Z,98942.58
2023-03-05T04:44:15.734Z,98940.27
2023-03-05T04:49:39.687Z,98937.27
2023-03-05T04:55:04.102Z,98938.56
2023-03-05T05:00:28.634Z,98930.41
2023-03-05T05:05:57.359Z,98929.48
2023-03-05T05:11:21.661Z,98921.60
2023-03-05T05:16:46.217Z,98918.30
2023-03-05T05:22:10.218Z,98918.13
2023-03-05T05:27:34.167Z,98920.77
2023-03-05T05:32:58.899Z,98920.73
2023-03-05T05:38:23.801Z,98924.90
2023-03-05T05:43:48.941Z,98926.13
2023-03-05T05:49:13.370Z,98933.69
2023-03-05T05:54:37.462Z,98938.71
2023-03-05T06:00:02.085Z,98933.86
2023-03-05T06:05:36.147Z,98937.11
2023-03-05T06:11:00.689Z,98937.28
2023-03-05T06:16:25.284Z,98942.77
2023-03-05T06:21:49.980Z,98941.05
2023-03-05T06:27:13.745Z,98954.50
2023-03-05T06:32:37.803Z,98950.44
2023-03-05T06:38:02.964Z,98951.85
2023-03-05T06:43:27.748Z,98957.65
2023-03-05T06:48:53.302Z,98960.16
2023-03-05T06:54:19.115Z,98953.23
2023-03-05T06:59:44.764Z,98953.12
2023-03-05T07:05:10.340Z,98952.21
2023-03-05T07:10:44.335Z,98947.54
2023-03-05T07:16:11.287Z,98938.44
2023-03-05T07:21:39.463Z,98938.74
2023-03-05T07:27:05.759Z,98935.23
2023-03-05T07:32:30.981Z,98933.20
2023-03-05T07:37:56.975Z,98926.88
2023-03-05T07:43:22.339Z,98926.55
2023-03-05T07:48:48.616Z,98924.20
2023-03-05T07:54:13.271Z,98923.71
2023-03-05T07:59:38.932Z,98916.16
2023-03-05T08:05:03.388Z,98915.91
2023-03-05T08:10:28.020Z,98903.04
2023-03-05T08:15:53.083Z,98907.16
2023-03-05T08:21:27.479Z,98901.33
2023-03-05T08:26:51.967Z,98898.48
2023-03-05T08:32:16.251Z,98897.20
2023-03-05T08:37:40.040Z,98902.34
2023-03-05T08:43:06.130Z,98901.19
2023-03-05T08:48:32.154Z,98893.10
2023-03-05T08:54:00.162Z,98889.02
2023-03-05T08:59:25.060Z,98886.93
2023-03-05T09:04:49.173Z,98888.80
2023-03-05T09:10:15.065Z,98876.88
2023-03-05T09:15:39.546Z,98870.26
2023-03-05T09:21:09.373Z,98867.96
2023-03-05T09:26:34.560Z,98872.75
2023-03-05T09:31:59.178Z,98867.06
2023-03-05T09:37:23.580Z,98863.06
2023-03-05T09:43:03.971Z,98854.48
2023-03-05T09:48:49.066Z,98849.06
2023-03-05T09:54:36.559Z,98848.09
2023-03-05T10:00:09.204Z,98846.28
2023-03-05T10:05:49.487Z,98845.45
2023-03-05T10:11:48.722Z,98847.69
2023-03-05T10:17:38.392Z,98844.98
2023-03-05T10:23:08.241Z,98829.36
2023-03-05T10:28:54.406Z,98827.10
2023-03-05T10:34:49.540Z,98822.48
2023-03-05T10:40:28.341Z,98805.63
2023-03-05T10:45:58.806Z,98800.70
2023-03-05T10:51:38.694Z,98789.42
2023-03-05T10:57:18.504Z,98780.30
2023-03-05T11:03:05.508Z,98778.89
2023-03-05T11:08:32.074Z,98782.85
2023-03-05T11:14:00.003Z,98787.10
2023-03-05T11:19:23.889Z,98785.35
2023-03-05T11:25:22.408Z,98774.33
2023-03-05T11:31:04.488Z,98769.41
2023-03-05T11:36:33.810Z,98771.27
2023-03-05T11:42:25.407Z,98759.20
2023-03-05T11:47:52.986Z,98750.64
2023-03-05T11:53:40.975Z,98742.80
2023-03-05T11:59:14.265Z,98736.70
2023-03-05T12:04:38.758Z,98719.27
2023-03-05T12:10:06.157Z,98716.36
2023-03-05T12:15:52.461Z,98700.94
2023-03-05T12:21:38.125Z,98699.27
2023-03-05T12:27:03.087Z,98695.02
2023-03-05T12:32:35.781Z,98694.77
2023-03-05T12:38:06.160Z,98707.23
2023-03-05T12:43:36.708Z,98705.83
2023-03-05T12:49:23.436Z,98708.30
2023-03-05T12:55:01.744Z,98703.27
2023-03-05T13:00:34.094Z,98706.00
2023-03-05T13:06:01.375Z,98706.99
2023-03-05T13:11:25.938Z,98713.45
2023-03-05T13:16:51.313Z,98701.39
2023-03-05T13:22:16.425Z,98695.77
2023-03-05T13:27:42.026Z,98694.66
2023-03-05T13:33:09.835Z,98696.59
2023-03-05T13:38:40.495Z,98693.30
2023-03-05T13:44:05.651Z,98695.42
2023-03-05T13:49:30.969Z,98687.52
2023-03-05T13:54:58.596Z,98682.42
2023-03-05T14:00:39.347Z,98673.23
2023-03-05T14:06:10.275Z,98664.89
2023-03-05T14:11:36.122Z,98653.46
2023-03-05T14:17:23.667Z,98656.10
2023-03-05T14:22:49.966Z,98651.19
2023-03-05T14:28:17.413Z,98647.69
2023-03-05T14:33:41.491Z,98640.52
2023-03-05T14:39:05.934Z,98632.98
2023-03-05T14:44:30.135Z,98640.89
2023-03-05T14:49:55.270Z,98635.54
2023-03-05T14:55:23.637Z,98632.52
2023-03-05T15:00:51.235Z,98619.45
2023-03-05T15:06:31.126Z,98617.64
2023-03-05T15:11:55.741Z,98617.08
2023-03-05T15:17:35.662Z,98607.94
2023-03-05T15:23:01.217Z,98607.15
2023-03-05T15:28:27.965Z,98601.48
2023-03-05T15:33:54.355Z,98608.05
2023-03-05T15:39:19.474Z,98606.70
2023-03-05T15:44:44.443Z,98604.59
2023-03-05T15:50:10.100Z,98598.31
2023-03-05T15:55:41.409Z,98607.27
2023-03-05T16:01:07.666Z,98606.64
2023-03-05T16:06:35.997Z,98612.10
2023-03-05T16:12:02.695Z,98616.30
2023-03-05T16:17:28.391Z,98622.23
2023-03-05T16:22:56.451Z,98621.85
2023-03-05T16:28:21.803Z,98617.84
2023-03-05T16:33:47.233Z,98617.15
2023-03-05T16:39:13.941Z,98627.27
2023-03-05T16:44:38.932Z,98634.23
2023-03-05T16:50:07.283Z,98641.77
2023-03-05T16:55:33.956Z,98655.72
2023-03-05T17:01:01.789Z,98659.08
2023-03-05T17:06:30.740Z,98665.06
2023-03-05T17:11:57.829Z,98661.77
2023-03-05T17:17:26.321Z,98664.06
2023-03-05T17:22:53.456Z,98667.34
2023-03-05T17:28:18.631Z,98665.83
2023-03-05T17:33:44.023Z,98660.49
2023-03-05T17:39:10.668Z,98663.91
2023-03-05T17:44:35.749Z,98660.73
2023-03-05T17:50:00.489Z,98664.50
2023-03-05T17:55:26.126Z,98668.59
2023-03-05T18:00:50.066Z,98666.98
2023-03-05T18:06:14.307Z,98667.38
2023-03-05T18:11:38.801Z,98661.96
2023-03-05T18:17:03.551Z,98650.40
2023-03-05T18:22:28.247Z,98642.16
2023-03-05T18:27:53.852Z,98638.23
2023-03-05T18:33:20.670Z,98636.00
2023-03-05T18:38:45.390Z,98636.77
2023-03-05T18:44:10.691Z,98634.73
2023-03-05T18:49:36.214Z,98637.17
2023-03-05T18:55:00.635Z,98636.61
2023-03-05T19:00:28.629Z,98636.23
2023-03-05T19:05:53.702Z,98640.87
2023-03-05T19:11:21.803Z,98637.21
2023-03-05T19:16:48.293Z,98637.00
2023-03-05T19:22:14.382Z,98630.04
2023-03-05T19:27:39.336Z,98630.83
2023-03-05T19:33:07.090Z,98630.90
2023-03-05T19:38:34.761Z,98629.52
2023-03-05T19:44:05.360Z,98625.11
2023-03-05T19:49:33.063Z,98619.34
2023-03-05T19:55:01.293Z,98622.98
2023-03-05T20:00:28.272Z,98619.92
2023-03-05T20:05:56.663Z,98618.67
2023-03-05T20:11:24.017Z,98613.02
2023-03-05T20:16:52.743Z,98619.77
2023-03-05T20:22:23.589Z,98625.08
2023-03-05T20:27:55.294Z,98623.02
2023-03-05T20:33:19.551Z,98621.19
2023-03-05T20:38:45.667Z,98621.55
2023-03-05T20:44:11.690Z,98625.77
2023-03-05T20:49:37.330Z,98613.95
2023-03-05T20:55:02.454Z,98609.54
2023-03-05T21:00:27.510Z,98614.27
2023-03-05T21:05:51.912Z,98611.39
2023-03-05T21:11:15.933Z,98616.05
2023-03-05T21:16:42.048Z,98611.77
2023-03-05T21:22:15.613Z,98607.10
2023-03-05T21:27:40.617Z,98600.63
2023-03-05T21:33:09.213Z,98592.92
2023-03-05T21:38:34.338Z,98589.73
2023-03-05T21:44:04.227Z,98583.30
2023-03-05T21:49:28.427Z,98578.66
2023-03-05T21:54:54.593Z,98569.28
2023-03-05T22:00:23.136Z,98563.63
2023-03-05T22:05:47.612Z,98556.94
2023-03-05T22:11:14.250Z,98553.81
2023-03-05T22:16:38.130Z,98545.48
2023-03-05T22:22:02.475Z,98535.31
2023-03-05T22:27:26.700Z,98532.39
2023-03-05T22:32:51.311Z,98525.63
2023-03-05T22:38:16.199Z,98523.35
2023-03-05T22:43:40.230Z,98518.52
2023-03-05T22:49:03.945Z,98515.26
2023-03-05T22:54:28.291Z,98510.48
2023-03-05T22:59:51.910Z,98506.54
2023-03-05T23:05:17.640Z,98507.10
2023-03-05T23:10:42.209Z,98504.98
2023-03-05T23:16:06.390Z,98506.27
2023-03-05T23:21:30.884Z,98499.66
2023-03-05T23:26:55.071Z,98494.66
2023-03-05T23:32:19.021Z,98492.01
2023-03-05T23:37:44.179Z,98485.61
2023-03-05T23:43:08.742Z,98482.41
2023-03-05T23:48:32.894Z,98476.73
2023-03-05T23:53:56.949Z,98470.94
2023-03-05T23:59:21.153Z,98461.61
